Segredos Do Mar — CUEA4 — position and weather

sailwx.info

Track history (hours):
 
Tides and Currents Weather Stations Pressure Air Temp Water Temp Dewpoint Dewpoint Depression Visibility Wind Speed Wind Dir Waves Ship Positions

Segredos Do Mar

Last reported at 2018-Jan-31 16:22 UTC. Time now 2018-Feb-21 11:18 UTC.
Position N 38°31' W 008°54'.
Warning: this ship's position is 20 days out of date.

Length 22 m.

MMSI: 263500212.

Date/timePositionNaut miles runAvg speedWind from/ knotsBaromVisibWave heightAir tempDewpointWater temp
2018-Jan-31 16:22N 38°31' W 008°54'3 7.8
2018-Jan-31 16:00N 38°29' W 008°56'4 8.6
2018-Jan-31 15:30N 38°27' W 009°01'5 9.2
2018-Jan-31 15:00N 38°26' W 009°07'0 0.1
2018-Jan-31 14:30N 38°26' W 009°07'0 0.0
2018-Jan-29 10:31N 38°26' W 009°07'0 0.1
2018-Jan-29 10:30N 38°26' W 009°07'0 0.2
2018-Jan-29 10:00N 38°26' W 009°07'4 7.7
2018-Jan-29 09:30N 38°26' W 009°02'4 7.9
2018-Jan-29 09:00N 38°28' W 008°57'  
2018-Jan-26 01:53N 38°29' W 008°56'2 5.9
2018-Jan-26 01:30N 38°28' W 008°58'1 2.0
2018-Jan-26 01:01N 38°27' W 008°58'0 0.7
2018-Jan-26 00:30N 38°27' W 008°58'2 3.1
2018-Jan-26 00:00N 38°26' W 008°56'6 5.2
2018-Jan-25 22:48N 38°22' W 008°51'1 2.4
2018-Jan-25 22:23N 38°23' W 008°51'2 4.5
2018-Jan-25 21:52N 38°25' W 008°51'3 4.2
2018-Jan-25 21:14N 38°26' W 008°54'2 6.2
2018-Jan-25 20:58N 38°26' W 008°56'1 1.7
2018-Jan-25 20:30N 38°26' W 008°57'0 0.5
2018-Jan-25 20:00N 38°27' W 008°58'0 0.1
2018-Jan-25 19:30N 38°27' W 008°58'0 0.6
2018-Jan-25 19:00N 38°27' W 008°58'1 2.3
2018-Jan-25 18:30N 38°28' W 008°58'4 0.1
2018-Jan-24 00:55N 38°31' W 008°54'3 7.3
2018-Jan-24 00:30N 38°29' W 008°56'3 5.0
2018-Jan-24 00:00N 38°26' W 008°57'4 7.6
2018-Jan-23 23:30N 38°24' W 008°54'2 1.9
2018-Jan-23 22:26N 38°22' W 008°52'1 1.7
2018-Jan-23 21:53N 38°23' W 008°53'2 3.4
2018-Jan-23 21:22N 38°24' W 008°53'2 5.6
2018-Jan-23 21:00N 38°26' W 008°55'3 5.6
2018-Jan-23 20:30N 38°27' W 008°58'4 0.1
2018-Jan-22 08:25N 38°31' W 008°54'2 6.0
2018-Jan-22 08:01N 38°29' W 008°56'3 5.2
2018-Jan-22 07:28N 38°26' W 008°57'8 7.2
2018-Jan-22 06:19N 38°20' W 008°50'1 3.0
2018-Jan-22 05:50N 38°19' W 008°50'0 0.7
2018-Jan-22 05:31N 38°19' W 008°50'2 3.5
2018-Jan-22 05:00N 38°17' W 008°49'2 3.3
2018-Jan-22 04:31N 38°16' W 008°48'0 0.6
2018-Jan-22 04:00N 38°16' W 008°48'0 0.3
2018-Jan-22 03:31N 38°16' W 008°48'0 0.3
2018-Jan-22 03:01N 38°17' W 008°48'0 0.0
2018-Jan-22 02:30N 38°17' W 008°48'0 0.0
2018-Jan-22 02:00N 38°17' W 008°48'0 0.0
2018-Jan-22 01:29N 38°17' W 008°48'2 3.3
2018-Jan-22 00:56N 38°18' W 008°49'4 5.0
2018-Jan-22 00:12N 38°22' W 008°51'2 7.5
2018-Jan-21 23:59N 38°23' W 008°52'4 7.1
2018-Jan-21 23:25N 38°26' W 008°55'3 6.0
2018-Jan-21 22:59N 38°27' W 008°58'  
Track history (hours):
 
Tides and Currents Weather Stations Pressure Air Temp Water Temp Dewpoint Dewpoint Depression Visibility Wind Speed Wind Dir Waves Ship Positions

Segredos Do Mar

Last reported at 2018-Jan-31 16:22 UTC. Time now 2018-Feb-21 11:18 UTC.
Position N 38°31' W 008°54'.
Warning: this ship's position is 20 days out of date.

Length 22 m.

MMSI: 263500212.

Date/timePositionNaut miles runAvg speedWind from/ knotsBaromVisibWave heightAir tempDewpointWater temp
2018-Jan-31 16:22N 38°31' W 008°54'3 7.8
2018-Jan-31 16:00N 38°29' W 008°56'4 8.6
2018-Jan-31 15:30N 38°27' W 009°01'5 9.2
2018-Jan-31 15:00N 38°26' W 009°07'0 0.1
2018-Jan-31 14:30N 38°26' W 009°07'0 0.0
2018-Jan-29 10:31N 38°26' W 009°07'0 0.1
2018-Jan-29 10:30N 38°26' W 009°07'0 0.2
2018-Jan-29 10:00N 38°26' W 009°07'4 7.7
2018-Jan-29 09:30N 38°26' W 009°02'4 7.9
2018-Jan-29 09:00N 38°28' W 008°57'  
2018-Jan-26 01:53N 38°29' W 008°56'2 5.9
2018-Jan-26 01:30N 38°28' W 008°58'1 2.0
2018-Jan-26 01:01N 38°27' W 008°58'0 0.7
2018-Jan-26 00:30N 38°27' W 008°58'2 3.1
2018-Jan-26 00:00N 38°26' W 008°56'6 5.2
2018-Jan-25 22:48N 38°22' W 008°51'1 2.4
2018-Jan-25 22:23N 38°23' W 008°51'2 4.5
2018-Jan-25 21:52N 38°25' W 008°51'3 4.2
2018-Jan-25 21:14N 38°26' W 008°54'2 6.2
2018-Jan-25 20:58N 38°26' W 008°56'1 1.7
2018-Jan-25 20:30N 38°26' W 008°57'0 0.5
2018-Jan-25 20:00N 38°27' W 008°58'0 0.1
2018-Jan-25 19:30N 38°27' W 008°58'0 0.6
2018-Jan-25 19:00N 38°27' W 008°58'1 2.3
2018-Jan-25 18:30N 38°28' W 008°58'4 0.1
2018-Jan-24 00:55N 38°31' W 008°54'3 7.3
2018-Jan-24 00:30N 38°29' W 008°56'3 5.0
2018-Jan-24 00:00N 38°26' W 008°57'4 7.6
2018-Jan-23 23:30N 38°24' W 008°54'2 1.9
2018-Jan-23 22:26N 38°22' W 008°52'1 1.7
2018-Jan-23 21:53N 38°23' W 008°53'2 3.4
2018-Jan-23 21:22N 38°24' W 008°53'2 5.6
2018-Jan-23 21:00N 38°26' W 008°55'3 5.6
2018-Jan-23 20:30N 38°27' W 008°58'4 0.1
2018-Jan-22 08:25N 38°31' W 008°54'2 6.0
2018-Jan-22 08:01N 38°29' W 008°56'3 5.2
2018-Jan-22 07:28N 38°26' W 008°57'8 7.2
2018-Jan-22 06:19N 38°20' W 008°50'1 3.0
2018-Jan-22 05:50N 38°19' W 008°50'0 0.7
2018-Jan-22 05:31N 38°19' W 008°50'2 3.5
2018-Jan-22 05:00N 38°17' W 008°49'2 3.3
2018-Jan-22 04:31N 38°16' W 008°48'0 0.6
2018-Jan-22 04:00N 38°16' W 008°48'0 0.3
2018-Jan-22 03:31N 38°16' W 008°48'0 0.3
2018-Jan-22 03:01N 38°17' W 008°48'0 0.0
2018-Jan-22 02:30N 38°17' W 008°48'0 0.0
2018-Jan-22 02:00N 38°17' W 008°48'0 0.0
2018-Jan-22 01:29N 38°17' W 008°48'2 3.3
2018-Jan-22 00:56N 38°18' W 008°49'4 5.0
2018-Jan-22 00:12N 38°22' W 008°51'2 7.5
2018-Jan-21 23:59N 38°23' W 008°52'4 7.1
2018-Jan-21 23:25N 38°26' W 008°55'3 6.0
2018-Jan-21 22:59N 38°27' W 008°58'  

Dump ship's entire track history